Time;durP1;ratioP1;P1;durP2;ratioP2;P2;SDS_P1;SDS_P2;PMS_P1;PMS_P2;Temp;Humidity;BMP_temperature;BMP_pressure;BME280_temperature;BME280_humidity;BME280_pressure;Samples;Min_cycle;Max_cycle;Signal;HPM_P1;HPM_P2
2022/08/22 00:02:18;;;;;;;4.73;3.60;;;16.80;48.80;;;;;;5073606;28;20624;-70
2022/08/22 00:04:51;;;;;;;6.73;3.73;;;16.80;55.00;;;;;;5073725;28;20829;-70
2022/08/22 00:07:33;;;;;;;5.80;3.37;;;16.70;56.00;;;;;;5091960;28;20403;-71
2022/08/22 00:10:07;;;;;;;6.97;3.80;;;16.60;62.50;;;;;;5055859;28;20474;-76
2022/08/22 00:12:43;;;;;;;7.27;4.23;;;16.60;50.60;;;;;;5074473;28;20518;-72
2022/08/22 00:15:18;;;;;;;7.40;3.87;;;16.50;52.20;;;;;;5093321;28;20407;-76
2022/08/22 00:17:54;;;;;;;6.33;3.77;;;16.50;54.10;;;;;;5073831;28;20962;-75
2022/08/22 00:20:23;;;;;;;4.47;3.37;;;16.50;51.80;;;;;;5075172;28;20538;-69
2022/08/22 00:23:18;;;;;;;6.63;3.87;;;16.50;49.00;;;;;;5088670;28;20801;-69
2022/08/22 00:25:53;;;;;;;5.20;3.57;;;16.40;48.20;;;;;;5072902;28;20396;-75
2022/08/22 00:28:28;;;;;;;4.10;3.70;;;16.30;51.00;;;;;;5091239;28;20451;-69
2022/08/22 00:31:00;;;;;;;5.10;3.93;;;16.30;56.70;;;;;;5093138;28;20442;-75
2022/08/22 00:33:47;;;;;;;5.73;3.57;;;16.30;52.50;;;;;;5055543;28;20405;-69
2022/08/22 00:36:43;;;;;;;8.07;4.07;;;16.20;51.60;;;;;;5059627;28;20408;-69
2022/08/22 00:39:15;;;;;;;4.60;3.67;;;16.20;48.20;;;;;;5079184;28;20429;-76
2022/08/22 00:41:58;;;;;;;4.17;3.53;;;16.20;63.60;;;;;;5073620;28;20781;-70
2022/08/22 00:44:30;;;;;;;5.93;3.63;;;16.20;58.10;;;;;;5076564;28;20487;-76
2022/08/22 00:47:05;;;;;;;3.63;3.33;;;16.20;62.20;;;;;;5082582;28;20411;-76
2022/08/22 00:49:36;;;;;;;5.50;3.17;;;16.10;62.70;;;;;;5079147;28;20427;-70
2022/08/22 00:52:23;;;;;;;4.70;4.30;;;16.10;66.10;;;;;;5071574;28;20455;-76
2022/08/22 00:55:14;;;;;;;7.20;4.53;;;16.10;66.00;;;;;;5076701;28;20434;-69
2022/08/22 00:57:56;;;;;;;;;;;;;;;;;;;;;
2022/08/22 01:00:29;;;;;;;6.50;3.70;;;16.00;69.50;;;;;;5096965;28;20442;-70
2022/08/22 01:03:14;;;;;;;4.47;4.03;;;16.00;74.50;;;;;;5083175;28;20474;-76
2022/08/22 01:06:00;;;;;;;4.43;4.03;;;16.00;75.00;;;;;;5058570;28;20431;-70
2022/08/22 01:08:47;;;;;;;5.00;3.50;;;16.00;83.80;;;;;;5078614;28;20443;-75
2022/08/22 01:11:42;;;;;;;3.63;2.90;;;16.10;92.80;;;;;;5058471;28;20788;-75
2022/08/22 01:14:34;;;;;;;4.00;3.60;;;16.10;91.50;;;;;;5060773;28;20427;-69
2022/08/22 01:17:26;;;;;;;8.63;3.70;;;16.00;94.20;;;;;;5072946;28;20416;-76
2022/08/22 01:20:18;;;;;;;3.53;3.23;;;16.00;94.20;;;;;;5075886;28;20439;-76
2022/08/22 01:23:42;;;;;;;4.57;3.77;;;16.00;94.30;;;;;;5096355;28;20400;-69
2022/08/22 01:26:43;;;;;;;4.10;3.70;;;16.00;94.20;;;;;;5074544;28;20404;-70
2022/08/22 01:29:50;;;;;;;3.73;2.90;;;16.00;94.20;;;;;;5061087;28;20787;-69
2022/08/22 01:32:36;;;;;;;5.10;3.67;;;16.10;94.50;;;;;;5014190;28;20434;-70
2022/08/22 01:35:35;;;;;;;3.83;3.53;;;16.10;95.30;;;;;;4996276;28;20447;-69
2022/08/22 01:38:28;;;;;;;7.90;3.77;;;16.20;99.20;;;;;;5047621;28;20432;-70
2022/08/22 01:41:38;;;;;;;11.43;4.40;;;16.20;99.90;;;;;;5075766;28;20527;-70
2022/08/22 01:44:28;;;;;;;4.60;3.20;;;16.20;99.90;;;;;;5092126;28;20760;-69
2022/08/22 01:47:13;;;;;;;4.60;3.40;;;16.30;99.90;;;;;;5077174;28;20450;-70
2022/08/22 01:49:55;;;;;;;5.63;3.23;;;16.40;99.90;;;;;;5077391;28;20419;-70
2022/08/22 01:52:57;;;;;;;3.53;3.23;;;16.40;99.90;;;;;;5095902;28;20439;-70
2022/08/22 01:55:33;;;;;;;5.80;3.90;;;16.40;99.90;;;;;;5088102;28;20746;-70
2022/08/22 01:58:03;;;;;;;5.87;4.50;;;16.40;99.90;;;;;;5074329;28;20979;-70
2022/08/22 02:01:08;;;;;;;4.37;3.00;;;16.40;99.90;;;;;;5083639;28;20459;-76
2022/08/22 02:04:07;;;;;;;4.00;3.33;;;16.30;99.90;;;;;;5095746;28;20414;-75
2022/08/22 02:06:40;;;;;;;4.93;3.40;;;16.30;99.90;;;;;;5004524;28;20432;-70
2022/08/22 02:09:32;;;;;;;3.80;3.50;;;16.20;99.90;;;;;;5075373;28;20420;-76
2022/08/22 02:12:20;;;;;;;5.63;3.10;;;16.20;99.90;;;;;;5094767;28;20501;-70
2022/08/22 02:15:11;;;;;;;4.80;4.20;;;16.20;99.90;;;;;;5076002;28;20418;-76
2022/08/22 02:18:11;;;;;;;4.47;4.07;;;16.20;99.90;;;;;;5056153;28;20439;-70
2022/08/22 02:21:02;;;;;;;5.03;3.87;;;16.20;99.90;;;;;;5085540;28;20451;-75
2022/08/22 02:23:34;;;;;;;5.00;3.73;;;16.20;99.90;;;;;;5095319;28;20392;-76
2022/08/22 02:26:00;;;;;;;5.60;3.40;;;16.20;99.90;;;;;;5094049;28;20423;-74
2022/08/22 02:28:39;;;;;;;7.10;4.03;;;16.20;99.90;;;;;;5076608;28;20459;-75
2022/08/22 02:31:15;;;;;;;6.57;4.57;;;16.20;99.90;;;;;;5076612;28;20949;-69
2022/08/22 02:33:48;;;;;;;6.40;3.70;;;16.20;99.90;;;;;;5076550;28;20445;-76
2022/08/22 02:36:47;;;;;;;4.17;3.80;;;16.20;99.90;;;;;;5090188;28;20472;-70
2022/08/22 02:39:31;;;;;;;3.53;3.20;;;16.20;99.90;;;;;;5075915;28;20435;-75
2022/08/22 02:42:16;;;;;;;3.53;3.07;;;16.20;99.90;;;;;;5095118;28;20404;-76
2022/08/22 02:45:05;;;;;;;4.37;3.10;;;16.20;99.90;;;;;;5090179;28;20408;-76
2022/08/22 02:47:40;;;;;;;6.43;3.30;;;16.20;99.90;;;;;;5073243;28;20573;-69
2022/08/22 02:50:25;;;;;;;4.63;3.47;;;16.10;99.90;;;;;;5081227;28;20411;-75
2022/08/22 02:53:07;;;;;;;4.83;3.40;;;16.00;99.90;;;;;;5094480;28;20403;-76
2022/08/22 02:55:55;;;;;;;3.87;3.30;;;16.00;99.90;;;;;;5065385;28;20420;-70
2022/08/22 02:58:38;;;;;;;6.03;3.37;;;16.00;99.90;;;;;;5055517;28;20461;-69
2022/08/22 03:01:21;;;;;;;6.33;3.20;;;15.80;99.90;;;;;;5088141;28;20490;-76
2022/08/22 03:03:49;;;;;;;6.77;3.63;;;15.80;99.90;;;;;;5076318;28;20412;-75
2022/08/22 03:06:38;;;;;;;6.43;3.70;;;15.80;99.90;;;;;;5089653;28;20524;-75
2022/08/22 03:09:24;;;;;;;5.10;3.20;;;15.80;99.90;;;;;;5093261;28;20947;-75
2022/08/22 03:12:08;;;;;;;5.60;4.70;;;15.80;99.90;;;;;;5074137;28;20388;-75
2022/08/22 03:14:43;;;;;;;4.17;3.53;;;15.70;99.90;;;;;;5074902;28;20442;-70
2022/08/22 03:17:26;;;;;;;3.60;3.30;;;15.80;99.90;;;;;;5054930;28;20404;-70
2022/08/22 03:20:13;;;;;;;6.27;3.23;;;15.80;99.90;;;;;;5061451;28;20486;-69
2022/08/22 03:23:01;;;;;;;3.50;3.20;;;15.80;99.90;;;;;;5094027;28;20494;-73
2022/08/22 03:25:49;;;;;;;4.43;3.30;;;15.80;99.90;;;;;;5065123;28;20416;-69
2022/08/22 03:28:24;;;;;;;3.93;3.63;;;15.80;99.90;;;;;;5072769;28;20440;-69
2022/08/22 03:31:13;;;;;;;3.50;3.20;;;15.70;99.90;;;;;;5089524;28;20453;-70
2022/08/22 03:33:39;;;;;;;3.73;3.43;;;15.70;99.90;;;;;;5075748;28;20426;-75
2022/08/22 03:36:25;;;;;;;5.57;3.37;;;15.70;99.90;;;;;;5092403;28;20426;-70
2022/08/22 03:39:00;;;;;;;6.17;3.20;;;15.70;99.90;;;;;;5093743;28;20491;-75
2022/08/22 03:41:52;;;;;;;5.20;3.27;;;15.70;99.90;;;;;;5075163;28;20455;-69
2022/08/22 03:45:13;;;;;;;8.40;4.33;;;15.60;99.90;;;;;;5071731;28;20405;-75
2022/08/22 03:48:01;;;;;;;6.10;4.00;;;15.50;99.90;;;;;;5074559;28;20420;-75
2022/08/22 03:50:47;;;;;;;5.73;3.67;;;15.40;99.90;;;;;;5093044;28;20422;-75
2022/08/22 03:53:51;;;;;;;4.50;3.30;;;15.40;99.90;;;;;;5093536;28;20497;-75
2022/08/22 03:56:32;;;;;;;5.10;3.30;;;15.40;99.90;;;;;;5029644;28;20448;-76
2022/08/22 03:59:56;;;;;;;3.60;3.30;;;15.40;99.90;;;;;;5055802;28;20944;-75
2022/08/22 04:02:56;;;;;;;3.73;3.30;;;15.40;99.90;;;;;;5039465;28;20462;-75
2022/08/22 04:05:27;;;;;;;5.70;3.10;;;15.30;99.90;;;;;;5080767;28;20427;-76
2022/08/22 04:08:31;;;;;;;5.17;3.43;;;15.30;99.90;;;;;;5072119;28;20444;-75
2022/08/22 04:11:21;;;;;;;4.20;3.60;;;15.20;99.90;;;;;;5071805;28;20505;-69
2022/08/22 04:17:24;;;;;;;6.00;3.30;;;15.20;99.90;;;;;;5071962;28;20500;-70
2022/08/22 04:20:28;;;;;;;11.80;3.53;;;15.20;99.90;;;;;;5062338;28;20455;-69
2022/08/22 04:23:39;;;;;;;7.53;3.73;;;15.20;99.90;;;;;;5093339;28;20403;-69
2022/08/22 04:29:37;;;;;;;5.53;3.43;;;15.20;99.90;;;;;;5073635;28;20548;-70
2022/08/22 04:32:06;;;;;;;4.57;3.73;;;15.10;99.90;;;;;;5074975;28;20418;-69
2022/08/22 04:35:11;;;;;;;3.40;3.20;;;15.10;99.90;;;;;;5089602;28;20500;-75
2022/08/22 04:37:46;;;;;;;3.80;3.17;;;15.10;99.90;;;;;;5053664;28;20444;-69
2022/08/22 04:40:38;;;;;;;3.90;3.60;;;15.10;99.90;;;;;;5080604;28;20500;-75
2022/08/22 04:43:12;;;;;;;6.00;2.93;;;15.10;99.90;;;;;;5078888;28;20478;-75
2022/08/22 04:46:16;;;;;;;6.50;4.03;;;15.10;99.90;;;;;;5071286;28;20411;-69
2022/08/22 04:49:04;;;;;;;5.87;3.43;;;15.10;99.90;;;;;;4987234;28;20475;-69
2022/08/22 04:51:43;;;;;;;5.17;3.70;;;15.10;99.90;;;;;;5073585;28;20511;-75
2022/08/22 04:54:42;;;;;;;5.33;4.60;;;15.10;99.90;;;;;;5073957;28;20412;-69
2022/08/22 04:57:44;;;;;;;5.30;3.80;;;15.10;99.90;;;;;;5092128;28;20407;-76
2022/08/22 05:00:11;;;;;;;4.37;3.97;;;15.10;99.90;;;;;;5070850;28;20446;-76
2022/08/22 05:02:41;;;;;;;3.63;3.33;;;15.10;99.90;;;;;;5074967;28;20469;-75
2022/08/22 05:05:14;;;;;;;7.43;3.23;;;15.20;99.90;;;;;;5092273;28;20412;-69
2022/08/22 05:07:48;;;;;;;7.83;4.03;;;15.20;99.90;;;;;;5091473;28;20416;-74
2022/08/22 05:10:34;;;;;;;7.80;3.67;;;15.20;99.90;;;;;;5074045;28;20423;-70
2022/08/22 05:13:09;;;;;;;4.83;3.70;;;15.20;99.90;;;;;;5072443;28;20412;-69
2022/08/22 05:15:40;;;;;;;3.77;3.47;;;15.20;99.90;;;;;;5072392;28;20765;-70
2022/08/22 05:18:22;;;;;;;4.33;2.77;;;15.20;99.90;;;;;;5071565;28;20420;-69
2022/08/22 05:20:50;;;;;;;5.43;3.53;;;15.20;99.90;;;;;;5074945;28;20452;-75
2022/08/22 05:23:26;;;;;;;3.77;3.57;;;15.10;99.90;;;;;;5076118;28;20405;-74
2022/08/22 05:26:09;;;;;;;3.97;3.60;;;15.00;99.90;;;;;;5075705;28;20408;-75
2022/08/22 05:28:40;;;;;;;7.47;3.47;;;15.10;99.90;;;;;;5077576;28;20474;-69
2022/08/22 05:31:16;;;;;;;4.07;2.83;;;15.10;99.90;;;;;;5095692;28;20417;-75
2022/08/22 05:33:46;;;;;;;3.40;3.20;;;15.10;99.90;;;;;;5075652;28;20421;-70
2022/08/22 05:36:19;;;;;;;4.83;4.50;;;15.10;99.90;;;;;;5057229;28;20459;-69
2022/08/22 05:38:54;;;;;;;3.93;3.63;;;15.20;99.90;;;;;;5077133;28;20443;-76
2022/08/22 05:41:24;;;;;;;3.97;3.67;;;15.20;99.90;;;;;;5075755;28;20452;-69
2022/08/22 05:43:52;;;;;;;4.83;3.83;;;15.30;99.90;;;;;;5076937;28;20420;-73
2022/08/22 05:46:48;;;;;;;4.67;3.50;;;15.30;99.90;;;;;;5093839;28;20411;-72
2022/08/22 05:49:43;;;;;;;4.53;4.20;;;15.30;99.90;;;;;;5095801;28;20435;-71
2022/08/22 05:52:12;;;;;;;4.27;3.87;;;15.40;99.90;;;;;;5091215;28;20426;-71
2022/08/22 05:54:56;;;;;;;7.67;4.00;;;15.50;99.90;;;;;;5095070;28;20451;-76
2022/08/22 05:57:30;;;;;;;4.00;3.70;;;15.50;99.90;;;;;;5076957;28;20958;-71
2022/08/22 06:00:21;;;;;;;5.53;4.57;;;15.60;99.90;;;;;;5061845;28;21018;-76
2022/08/22 06:02:57;;;;;;;4.17;3.60;;;15.70;99.90;;;;;;5075291;28;20421;-71
2022/08/22 06:05:30;;;;;;;3.77;3.43;;;15.80;99.90;;;;;;5075988;28;20412;-75
2022/08/22 06:08:05;;;;;;;4.23;3.70;;;15.80;99.90;;;;;;5075449;28;20424;-71
2022/08/22 06:10:45;;;;;;;5.33;3.57;;;15.90;99.90;;;;;;5095174;28;20419;-71
2022/08/22 06:13:22;;;;;;;5.40;3.93;;;16.00;99.90;;;;;;5094799;28;20930;-76
2022/08/22 06:16:20;;;;;;;4.23;3.83;;;16.10;99.90;;;;;;5095178;28;20469;-76
2022/08/22 06:18:49;;;;;;;4.13;3.73;;;16.20;99.90;;;;;;5053820;28;20436;-76
2022/08/22 06:21:37;;;;;;;6.27;3.77;;;16.30;99.90;;;;;;5075036;28;20546;-76
2022/08/22 06:24:13;;;;;;;6.53;3.83;;;16.50;99.90;;;;;;5083300;28;20509;-76
2022/08/22 06:26:45;;;;;;;3.50;3.20;;;16.50;99.90;;;;;;5075845;28;20421;-71
2022/08/22 06:29:22;;;;;;;3.97;3.10;;;16.70;99.90;;;;;;5085695;28;20459;-76
2022/08/22 06:31:56;;;;;;;7.30;2.47;;;16.70;99.90;;;;;;5074691;28;20436;-76
2022/08/22 06:34:36;;;;;;;3.03;2.80;;;16.70;99.90;;;;;;5084414;28;20411;-76
2022/08/22 06:37:12;;;;;;;6.90;3.00;;;16.80;99.90;;;;;;5094069;28;20401;-71
2022/08/22 06:39:42;;;;;;;3.83;2.40;;;16.90;99.90;;;;;;5083510;28;20446;-76
2022/08/22 06:42:16;;;;;;;3.23;2.93;;;17.00;99.90;;;;;;5074791;28;20392;-76
2022/08/22 06:45:15;;;;;;;7.53;3.00;;;17.10;99.90;;;;;;5085332;28;20485;-71
2022/08/22 06:48:03;;;;;;;4.03;2.50;;;17.20;99.90;;;;;;5093854;28;20431;-70
2022/08/22 06:50:39;;;;;;;6.47;2.23;;;17.30;99.90;;;;;;5077257;28;20530;-77
2022/08/22 06:53:22;;;;;;;4.03;2.03;;;17.40;99.90;;;;;;5074322;28;20412;-76
2022/08/22 06:55:54;;;;;;;6.50;2.57;;;17.50;99.90;;;;;;5093051;28;20477;-76
2022/08/22 06:58:26;;;;;;;6.90;2.43;;;17.50;99.90;;;;;;5093855;28;20430;-74
2022/08/22 07:00:57;;;;;;;3.63;2.23;;;17.50;99.90;;;;;;5076536;28;20451;-69
2022/08/22 07:03:32;;;;;;;2.50;2.13;;;17.60;99.90;;;;;;5094345;28;20482;-75
2022/08/22 07:05:58;;;;;;;2.80;2.17;;;17.80;99.90;;;;;;5093895;28;20813;-69
2022/08/22 07:08:27;;;;;;;3.60;2.30;;;17.90;99.90;;;;;;5094083;28;20514;-74
2022/08/22 07:11:05;;;;;;;9.50;2.20;;;18.00;99.90;;;;;;5094308;28;20410;-76
2022/08/22 07:13:34;;;;;;;1.97;1.60;;;18.20;99.90;;;;;;5094312;28;20406;-76
2022/08/22 07:16:05;;;;;;;3.57;2.10;;;18.30;99.90;;;;;;5093684;28;20404;-75
2022/08/22 07:18:32;;;;;;;3.50;1.70;;;18.40;99.90;;;;;;5094130;28;20411;-76
2022/08/22 07:21:06;;;;;;;4.13;1.90;;;18.50;99.90;;;;;;5094109;28;20463;-76
2022/08/22 07:23:43;;;;;;;2.17;1.70;;;18.60;99.90;;;;;;5094007;28;20414;-69
2022/08/22 07:26:27;;;;;;;3.70;1.77;;;18.70;99.90;;;;;;5093530;28;20402;-69
2022/08/22 07:29:17;;;;;;;2.33;1.53;;;18.70;99.90;;;;;;5075713;28;20491;-70
2022/08/22 07:31:53;;;;;;;2.80;1.53;;;18.80;95.80;;;;;;5093995;28;20400;-76
2022/08/22 07:34:48;;;;;;;4.53;1.90;;;18.90;95.40;;;;;;5093956;28;20425;-68
2022/08/22 07:37:22;;;;;;;3.57;1.83;;;19.10;95.40;;;;;;5093108;28;20421;-76
2022/08/22 07:39:58;;;;;;;2.60;1.80;;;19.10;93.40;;;;;;5094276;28;20991;-75
2022/08/22 07:42:45;;;;;;;4.40;2.00;;;19.20;92.00;;;;;;5092989;28;20415;-76
2022/08/22 07:45:34;;;;;;;3.77;2.00;;;19.40;88.10;;;;;;5093882;28;20473;-76
2022/08/22 07:48:08;;;;;;;2.97;1.63;;;19.50;16.50;;;;;;5093162;28;20420;-70
2022/08/22 07:51:24;;;;;;;2.90;1.90;;;19.60;5.30;;;;;;5093965;28;20464;-69
2022/08/22 07:54:06;;;;;;;2.10;1.77;;;19.70;1.00;;;;;;5094013;28;20406;-69
2022/08/22 07:56:41;;;;;;;3.07;1.87;;;19.80;1.00;;;;;;5093058;28;20415;-69
2022/08/22 07:59:15;;;;;;;5.20;1.80;;;19.90;1.00;;;;;;5093588;28;20447;-76
2022/08/22 08:01:47;;;;;;;4.17;2.27;;;20.00;1.00;;;;;;5093146;28;20451;-69
2022/08/22 08:04:22;;;;;;;1.70;1.60;;;20.20;1.00;;;;;;5075682;28;20456;-76
2022/08/22 08:06:51;;;;;;;2.70;1.60;;;20.30;1.00;;;;;;5092987;28;20427;-76
2022/08/22 08:09:18;;;;;;;1.53;1.43;;;20.50;1.00;;;;;;5093389;28;20428;-69
2022/08/22 08:11:45;;;;;;;4.60;1.83;;;20.70;1.00;;;;;;5093334;28;20418;-69
2022/08/22 08:14:16;;;;;;;5.93;2.17;;;20.80;1.00;;;;;;5092060;28;20415;-76
2022/08/22 08:17:02;;;;;;;5.17;2.80;;;20.90;1.00;;;;;;5092837;28;20418;-76
2022/08/22 08:19:32;;;;;;;6.20;1.70;;;20.90;1.00;;;;;;5092758;28;20463;-76
2022/08/22 08:21:58;;;;;;;4.27;1.77;;;20.90;1.00;;;;;;5093399;28;20443;-75
2022/08/22 08:24:29;;;;;;;3.47;1.90;;;21.00;1.00;;;;;;5093499;28;20546;-69
2022/08/22 08:29:54;;;;;;;4.03;1.67;;;21.10;1.00;;;;;;5093098;28;20430;-70
2022/08/22 08:32:23;;;;;;;3.63;1.87;;;21.10;1.00;;;;;;5093406;28;20399;-75
2022/08/22 08:34:49;;;;;;;6.37;1.67;;;20.90;1.00;;;;;;5093386;28;20427;-68
2022/08/22 08:37:42;;;;;;;5.23;2.17;;;20.60;1.00;;;;;;5091899;28;20424;-69
2022/08/22 08:40:26;;;;;;;4.30;2.43;;;20.40;1.00;;;;;;5093303;28;20443;-69
2022/08/22 08:46:28;;;;;;;7.83;2.00;;;20.30;1.00;;;;;;5093008;28;20418;-74
2022/08/22 08:48:54;;;;;;;3.70;1.90;;;20.40;1.00;;;;;;5093213;28;20429;-69
2022/08/22 08:51:38;;;;;;;3.90;2.30;;;20.40;1.00;;;;;;5093093;28;20769;-75
2022/08/22 08:54:48;;;;;;;3.60;1.33;;;20.70;1.00;;;;;;5092507;28;20403;-73
2022/08/22 08:57:28;;;;;;;6.70;2.47;;;21.10;1.00;;;;;;5096282;28;20428;-72
2022/08/22 09:00:11;;;;;;;3.43;2.17;;;21.50;1.00;;;;;;5097029;28;20951;-74
2022/08/22 09:03:12;;;;;;;2.70;1.90;;;21.90;1.00;;;;;;5097216;28;20403;-72
2022/08/22 09:05:57;;;;;;;3.00;1.67;;;22.20;1.00;;;;;;5096452;28;20907;-72
2022/08/22 09:08:28;;;;;;;5.20;2.13;;;22.10;1.00;;;;;;5096184;28;20423;-74
2022/08/22 09:11:19;;;;;;;8.70;2.20;;;22.20;1.00;;;;;;5096333;28;20410;-74
2022/08/22 09:14:06;;;;;;;5.33;2.13;;;22.50;1.00;;;;;;5096672;28;20426;-74
2022/08/22 09:16:55;;;;;;;4.73;2.10;;;22.70;1.00;;;;;;5096135;28;20408;-72
2022/08/22 09:19:48;;;;;;;2.70;2.17;;;23.00;1.00;;;;;;5096555;28;20430;-73
2022/08/22 09:22:17;;;;;;;3.17;1.63;;;23.20;1.00;;;;;;5096543;28;20425;-72
2022/08/22 09:25:00;;;;;;;6.17;2.00;;;23.50;1.00;;;;;;5096544;28;20403;-74
2022/08/22 09:27:34;;;;;;;5.20;1.80;;;23.70;1.00;;;;;;5076985;28;20419;-72
2022/08/22 09:30:22;;;;;;;4.10;1.77;;;23.80;1.00;;;;;;5096299;28;20438;-72
2022/08/22 09:33:01;;;;;;;2.63;1.70;;;23.90;1.00;;;;;;5096452;28;20427;-72
2022/08/22 09:35:41;;;;;;;2.20;1.63;;;24.20;1.00;;;;;;5096318;28;20403;-72
2022/08/22 09:38:39;;;;;;;3.27;1.70;;;24.50;1.00;;;;;;5095466;28;20438;-72
2022/08/22 09:41:14;;;;;;;2.23;1.57;;;24.70;1.00;;;;;;5088874;28;20478;-75
2022/08/22 09:43:46;;;;;;;2.53;1.50;;;25.00;1.00;;;;;;5096246;28;20391;-74
2022/08/22 09:46:32;;;;;;;7.63;1.80;;;25.40;1.00;;;;;;5094958;28;20411;-74
2022/08/22 09:49:14;;;;;;;4.33;2.07;;;25.70;1.00;;;;;;5078098;28;20423;-74
2022/08/22 09:52:09;;;;;;;3.30;1.73;;;25.50;1.00;;;;;;5078108;28;20419;-74
2022/08/22 09:54:47;;;;;;;2.20;1.83;;;25.00;1.00;;;;;;5077700;28;20411;-74
2022/08/22 09:57:40;;;;;;;3.87;2.13;;;24.50;1.00;;;;;;5095295;28;20751;-75
2022/08/22 10:00:23;;;;;;;2.80;1.70;;;24.20;1.00;;;;;;5095634;28;20447;-73
2022/08/22 10:03:07;;;;;;;5.67;2.17;;;24.00;1.00;;;;;;5095830;28;20741;-74
2022/08/22 10:05:54;;;;;;;3.20;1.83;;;24.00;1.00;;;;;;5095105;28;20456;-74
2022/08/22 10:08:54;;;;;;;4.53;2.27;;;23.50;1.00;;;;;;5095104;28;20447;-73
2022/08/22 10:11:26;;;;;;;3.67;1.97;;;23.20;1.00;;;;;;5095639;28;20884;-74
2022/08/22 10:13:58;;;;;;;5.00;2.33;;;23.80;1.00;;;;;;5095563;28;20528;-72
2022/08/22 10:16:28;;;;;;;2.30;1.40;;;24.30;1.00;;;;;;5094755;28;20428;-72
2022/08/22 10:19:16;;;;;;;3.80;1.97;;;24.20;1.00;;;;;;5095837;28;20435;-73
2022/08/22 10:21:46;;;;;;;2.03;1.87;;;24.10;1.00;;;;;;5095255;28;20451;-73
2022/08/22 10:24:38;;;;;;;2.93;2.23;;;23.80;1.00;;;;;;5095132;28;20479;-74
2022/08/22 10:27:13;;;;;;;7.03;2.30;;;23.60;1.00;;;;;;5094424;28;20904;-75
2022/08/22 10:30:10;;;;;;;2.30;1.83;;;23.30;1.00;;;;;;5095065;28;20470;-75
2022/08/22 10:32:58;;;;;;;5.83;2.70;;;23.00;1.00;;;;;;5077213;28;20419;-75
2022/08/22 10:35:36;;;;;;;3.23;2.20;;;22.80;1.00;;;;;;5095177;28;20792;-74
2022/08/22 10:38:21;;;;;;;6.47;2.83;;;22.80;1.00;;;;;;5076089;28;20774;-75
2022/08/22 10:40:58;;;;;;;4.73;1.70;;;22.70;1.00;;;;;;5076701;28;20470;-74
2022/08/22 10:43:41;;;;;;;6.17;2.03;;;23.10;1.00;;;;;;5094572;28;20490;-74
2022/08/22 10:46:37;;;;;;;4.07;2.30;;;24.10;1.00;;;;;;5094237;28;20461;-75
2022/08/22 10:49:18;;;;;;;2.47;1.80;;;25.00;1.00;;;;;;5094640;28;20415;-74
2022/08/22 10:51:59;;;;;;;3.60;2.07;;;25.50;1.00;;;;;;5094835;28;20487;-72
2022/08/22 10:54:46;;;;;;;1.53;1.37;;;26.30;1.00;;;;;;5094643;28;20403;-73
2022/08/22 10:57:25;;;;;;;3.20;1.97;;;26.80;1.00;;;;;;5094248;28;20429;-74
2022/08/22 11:00:14;;;;;;;6.63;2.17;;;26.90;1.00;;;;;;5094315;28;20418;-74
2022/08/22 11:03:06;;;;;;;7.33;1.73;;;27.20;1.00;;;;;;5094629;28;20910;-76
2022/08/22 11:05:45;;;;;;;3.63;1.50;;;27.20;1.00;;;;;;5089814;28;20772;-74
2022/08/22 11:08:31;;;;;;;5.93;2.40;;;26.40;1.00;;;;;;5093920;28;20895;-75
2022/08/22 11:10:57;;;;;;;4.20;2.43;;;25.80;1.00;;;;;;5094456;28;20891;-69
2022/08/22 11:13:36;;;;;;;2.00;1.70;;;25.80;1.00;;;;;;5094461;28;20434;-70
2022/08/22 11:16:11;;;;;;;4.47;1.90;;;25.90;1.00;;;;;;5093580;28;20641;-75
2022/08/22 11:18:43;;;;;;;5.20;2.00;;;25.90;1.00;;;;;;5093349;28;20481;-75
2022/08/22 11:21:42;;;;;;;4.73;1.80;;;26.00;1.00;;;;;;5094318;28;20447;-75
2022/08/22 11:24:37;;;;;;;5.87;1.80;;;26.30;1.00;;;;;;5094152;28;20876;-70
2022/08/22 11:27:13;;;;;;;3.10;1.90;;;25.70;1.00;;;;;;5093317;28;20494;-69
2022/08/22 11:30:02;;;;;;;4.97;2.60;;;24.80;1.00;;;;;;5075864;28;20838;-75
2022/08/22 11:32:36;;;;;;;5.47;2.03;;;24.30;1.00;;;;;;5075802;28;20415;-69
2022/08/22 11:35:24;;;;;;;4.20;1.90;;;24.10;1.00;;;;;;5093908;28;20395;-74
2022/08/22 11:38:02;;;;;;;7.70;2.33;;;24.40;1.00;;;;;;5092928;28;20427;-69
2022/08/22 11:40:59;;;;;;;3.20;1.80;;;25.60;1.00;;;;;;5093867;28;20868;-75
2022/08/22 11:43:58;;;;;;;3.53;1.60;;;26.70;1.00;;;;;;5093872;28;20403;-70
2022/08/22 11:46:34;;;;;;;4.60;1.50;;;26.00;1.00;;;;;;5087785;28;20422;-70
2022/08/22 11:49:31;;;;;;;6.67;2.40;;;25.00;1.00;;;;;;5093560;28;20791;-74
2022/08/22 11:52:01;;;;;;;5.60;2.30;;;24.00;1.00;;;;;;5093577;28;20406;-69
2022/08/22 11:54:41;;;;;;;4.93;2.10;;;23.50;1.00;;;;;;5093731;28;20414;-74
2022/08/22 11:57:15;;;;;;;5.97;2.50;;;23.00;1.00;;;;;;5093011;28;20461;-69
2022/08/22 12:00:02;;;;;;;6.30;1.77;;;22.70;1.00;;;;;;5093695;28;20391;-74
2022/08/22 12:02:45;;;;;;;2.63;2.30;;;22.60;1.00;;;;;;5093764;28;20406;-69
2022/08/22 12:05:23;;;;;;;3.47;2.17;;;22.30;1.00;;;;;;5075678;28;20403;-74
2022/08/22 12:08:10;;;;;;;5.73;2.20;;;21.90;1.00;;;;;;5092803;28;20962;-69
2022/08/22 12:10:46;;;;;;;4.30;2.40;;;21.80;1.00;;;;;;5075454;28;20447;-69
2022/08/22 12:13:34;;;;;;;8.10;2.07;;;21.90;1.00;;;;;;5093398;28;20416;-69
2022/08/22 12:16:16;;;;;;;6.47;2.17;;;22.00;1.00;;;;;;5075079;28;20460;-73
2022/08/22 12:18:51;;;;;;;5.47;2.60;;;22.00;1.00;;;;;;5093500;28;20423;-75
2022/08/22 12:21:41;;;;;;;3.20;3.00;;;22.10;1.00;;;;;;5093836;28;20947;-69
2022/08/22 12:24:32;;;;;;;4.43;2.23;;;22.10;1.00;;;;;;5093310;28;20780;-68
2022/08/22 12:27:04;;;;;;;1.70;1.60;;;22.00;1.00;;;;;;5092681;28;20395;-73
2022/08/22 12:30:00;;;;;;;4.27;2.10;;;21.90;1.00;;;;;;5095484;28;20492;-70
2022/08/22 12:32:54;;;;;;;4.60;2.13;;;21.80;1.00;;;;;;5097398;28;20418;-74
2022/08/22 12:35:38;;;;;;;5.80;2.80;;;21.60;1.00;;;;;;5097323;28;20533;-69
2022/08/22 12:38:16;;;;;;;2.90;1.90;;;21.50;1.00;;;;;;5096524;28;20427;-74
2022/08/22 12:41:20;;;;;;;5.27;2.10;;;21.50;1.00;;;;;;5097317;28;20446;-71
2022/08/22 12:44:06;;;;;;;10.77;2.53;;;21.40;1.00;;;;;;5079089;28;20877;-74
2022/08/22 12:46:42;;;;;;;2.80;2.13;;;21.30;1.00;;;;;;5096823;28;20482;-74
2022/08/22 12:49:28;;;;;;;2.50;2.30;;;21.30;1.00;;;;;;5096684;28;20427;-71
2022/08/22 12:52:33;;;;;;;5.03;2.40;;;21.20;1.00;;;;;;5097073;28;20928;-74
2022/08/22 12:55:32;;;;;;;8.03;2.90;;;21.10;1.00;;;;;;5097131;28;20449;-74
2022/08/22 12:58:11;;;;;;;5.07;2.27;;;21.10;1.00;;;;;;5090792;28;20454;-68
2022/08/22 13:00:46;;;;;;;6.07;3.10;;;21.00;1.00;;;;;;5096922;28;20516;-74
2022/08/22 13:03:49;;;;;;;3.63;2.10;;;21.00;1.00;;;;;;5097334;28;20449;-73
2022/08/22 13:06:35;;;;;;;5.50;2.10;;;21.10;1.00;;;;;;5095192;28;20422;-69
2022/08/22 13:09:10;;;;;;;3.60;2.53;;;21.10;1.00;;;;;;5082531;28;20466;-74
2022/08/22 13:11:42;;;;;;;2.50;2.30;;;21.10;1.00;;;;;;5096679;28;20406;-69
2022/08/22 13:14:10;;;;;;;5.97;2.60;;;21.20;1.00;;;;;;5078655;28;20415;-69
2022/08/22 13:16:41;;;;;;;3.23;1.90;;;21.30;1.00;;;;;;5078085;28;20480;-69
2022/08/22 13:19:11;;;;;;;4.10;2.33;;;21.20;1.00;;;;;;5096605;28;20899;-74
2022/08/22 13:21:47;;;;;;;3.50;2.30;;;21.30;1.00;;;;;;5096431;28;20546;-69
2022/08/22 13:24:43;;;;;;;3.33;2.40;;;21.30;1.00;;;;;;5077914;28;20414;-74
2022/08/22 13:27:21;;;;;;;4.77;2.53;;;21.20;1.00;;;;;;5095919;28;20762;-75
2022/08/22 13:29:53;;;;;;;4.10;3.20;;;21.20;1.00;;;;;;5096230;28;20459;-69
2022/08/22 13:32:27;;;;;;;5.30;2.97;;;21.20;1.00;;;;;;5096558;28;20426;-74
2022/08/22 13:34:55;;;;;;;6.27;2.80;;;21.20;1.00;;;;;;5096263;28;20408;-69
2022/08/22 13:37:28;;;;;;;4.00;3.10;;;21.10;1.00;;;;;;5095433;28;20800;-74
2022/08/22 13:40:00;;;;;;;3.23;2.30;;;21.20;1.00;;;;;;5096356;28;20488;-74
2022/08/22 13:42:48;;;;;;;6.37;2.80;;;21.30;1.00;;;;;;5095778;28;20408;-70
2022/08/22 13:45:26;;;;;;;5.03;2.70;;;21.40;1.00;;;;;;5095471;28;20422;-70
2022/08/22 13:48:06;;;;;;;4.33;2.30;;;21.50;1.00;;;;;;5076955;28;20442;-69
2022/08/22 13:50:33;;;;;;;2.80;2.50;;;21.70;1.00;;;;;;5096113;28;20438;-69
2022/08/22 13:53:12;;;;;;;7.30;2.60;;;22.10;1.00;;;;;;5096586;28;20400;-74
2022/08/22 13:55:46;;;;;;;3.27;2.53;;;22.60;1.00;;;;;;5096045;28;20820;-69
2022/08/22 13:58:12;;;;;;;11.80;2.30;;;23.10;1.00;;;;;;5095354;28;20480;-69
2022/08/22 14:01:06;;;;;;;3.30;1.80;;;23.60;1.00;;;;;;5095852;28;20444;-71
2022/08/22 14:03:39;;;;;;;3.80;3.33;;;24.00;1.00;;;;;;5084665;28;20192;-71
2022/08/22 14:06:18;;;;;;;4.53;2.73;;;24.10;1.00;;;;;;5094969;28;20403;-70
2022/08/22 14:08:46;;;;;;;7.13;2.20;;;24.10;1.00;;;;;;5095707;28;20605;-74
2022/08/22 14:11:31;;;;;;;3.10;1.90;;;24.30;1.00;;;;;;5078169;28;20415;-75
2022/08/22 14:14:02;;;;;;;3.90;2.00;;;24.50;1.00;;;;;;5095490;28;20502;-74
2022/08/22 14:16:36;;;;;;;5.47;2.30;;;24.20;1.00;;;;;;5094885;28;20408;-74
2022/08/22 14:19:09;;;;;;;6.53;2.47;;;24.20;1.00;;;;;;5095346;28;20429;-74
2022/08/22 14:21:50;;;;;;;5.90;2.10;;;24.10;1.00;;;;;;5094933;28;20561;-69
2022/08/22 14:24:27;;;;;;;3.50;1.80;;;24.00;1.00;;;;;;5095444;28;20415;-69